sensor_id;sensor_type;location;lat;lon;timestamp;P1;durP1;ratioP1;P2;durP2;ratioP2
43154;SDS011;34212;51.018;13.586;2024-03-08T00:03:31;26.30;;;16.92;;
43154;SDS011;34212;51.018;13.586;2024-03-08T00:08:33;28.13;;;18.23;;
43154;SDS011;34212;51.018;13.586;2024-03-08T00:13:35;26.73;;;18.02;;
43154;SDS011;34212;51.018;13.586;2024-03-08T00:18:37;26.15;;;16.63;;
43154;SDS011;34212;51.018;13.586;2024-03-08T00:23:39;25.92;;;16.50;;
43154;SDS011;34212;51.018;13.586;2024-03-08T00:28:41;27.42;;;17.73;;
43154;SDS011;34212;51.018;13.586;2024-03-08T00:33:42;24.83;;;16.98;;
43154;SDS011;34212;51.018;13.586;2024-03-08T00:38:44;26.65;;;17.60;;
43154;SDS011;34212;51.018;13.586;2024-03-08T00:43:45;33.00;;;17.60;;
43154;SDS011;34212;51.018;13.586;2024-03-08T00:53:50;28.15;;;17.58;;
43154;SDS011;34212;51.018;13.586;2024-03-08T00:58:52;25.40;;;16.65;;
43154;SDS011;34212;51.018;13.586;2024-03-08T01:03:54;28.90;;;18.00;;
43154;SDS011;34212;51.018;13.586;2024-03-08T01:08:56;25.80;;;16.88;;
43154;SDS011;34212;51.018;13.586;2024-03-08T01:13:57;28.80;;;17.92;;
43154;SDS011;34212;51.018;13.586;2024-03-08T01:18:59;29.77;;;16.65;;
43154;SDS011;34212;51.018;13.586;2024-03-08T01:24:01;27.83;;;17.77;;
43154;SDS011;34212;51.018;13.586;2024-03-08T01:29:02;28.00;;;17.05;;
43154;SDS011;34212;51.018;13.586;2024-03-08T01:34:04;26.27;;;17.92;;
43154;SDS011;34212;51.018;13.586;2024-03-08T01:39:06;27.02;;;17.95;;
43154;SDS011;34212;51.018;13.586;2024-03-08T01:49:10;30.45;;;18.17;;
43154;SDS011;34212;51.018;13.586;2024-03-08T01:54:12;30.17;;;18.67;;
43154;SDS011;34212;51.018;13.586;2024-03-08T01:59:16;25.90;;;17.75;;
43154;SDS011;34212;51.018;13.586;2024-03-08T02:04:18;30.07;;;18.90;;
43154;SDS011;34212;51.018;13.586;2024-03-08T02:09:20;27.95;;;18.27;;
43154;SDS011;34212;51.018;13.586;2024-03-08T02:14:21;30.15;;;18.02;;
43154;SDS011;34212;51.018;13.586;2024-03-08T02:19:23;30.52;;;17.88;;
43154;SDS011;34212;51.018;13.586;2024-03-08T02:24:25;29.52;;;18.50;;
43154;SDS011;34212;51.018;13.586;2024-03-08T02:29:26;30.55;;;17.40;;
43154;SDS011;34212;51.018;13.586;2024-03-08T02:34:28;31.75;;;18.58;;
43154;SDS011;34212;51.018;13.586;2024-03-08T02:39:32;27.60;;;17.88;;
43154;SDS011;34212;51.018;13.586;2024-03-08T02:44:34;28.85;;;17.90;;
43154;SDS011;34212;51.018;13.586;2024-03-08T02:49:36;30.80;;;19.02;;
43154;SDS011;34212;51.018;13.586;2024-03-08T02:54:38;30.73;;;18.05;;
43154;SDS011;34212;51.018;13.586;2024-03-08T02:59:40;28.08;;;18.40;;
43154;SDS011;34212;51.018;13.586;2024-03-08T03:04:42;30.23;;;18.92;;
43154;SDS011;34212;51.018;13.586;2024-03-08T03:09:44;30.43;;;18.27;;
43154;SDS011;34212;51.018;13.586;2024-03-08T03:14:46;31.13;;;19.03;;
43154;SDS011;34212;51.018;13.586;2024-03-08T03:19:48;31.80;;;18.87;;
43154;SDS011;34212;51.018;13.586;2024-03-08T03:24:50;31.40;;;18.77;;
43154;SDS011;34212;51.018;13.586;2024-03-08T03:29:52;34.75;;;18.75;;
43154;SDS011;34212;51.018;13.586;2024-03-08T03:34:54;30.80;;;19.25;;
43154;SDS011;34212;51.018;13.586;2024-03-08T03:39:55;30.67;;;18.48;;
43154;SDS011;34212;51.018;13.586;2024-03-08T03:44:58;27.35;;;18.48;;
43154;SDS011;34212;51.018;13.586;2024-03-08T03:50:00;30.27;;;18.77;;
43154;SDS011;34212;51.018;13.586;2024-03-08T03:55:04;32.08;;;19.40;;
43154;SDS011;34212;51.018;13.586;2024-03-08T04:00:06;29.83;;;18.63;;
43154;SDS011;34212;51.018;13.586;2024-03-08T04:05:17;33.63;;;19.25;;
43154;SDS011;34212;51.018;13.586;2024-03-08T04:10:18;28.92;;;17.58;;
43154;SDS011;34212;51.018;13.586;2024-03-08T04:15:21;26.42;;;17.40;;
43154;SDS011;34212;51.018;13.586;2024-03-08T04:20:22;31.80;;;18.48;;
43154;SDS011;34212;51.018;13.586;2024-03-08T04:25:24;29.00;;;17.85;;
43154;SDS011;34212;51.018;13.586;2024-03-08T04:30:25;29.48;;;18.75;;
43154;SDS011;34212;51.018;13.586;2024-03-08T04:35:29;30.08;;;17.73;;
43154;SDS011;34212;51.018;13.586;2024-03-08T04:40:31;31.30;;;17.95;;
43154;SDS011;34212;51.018;13.586;2024-03-08T04:45:33;29.10;;;18.77;;
43154;SDS011;34212;51.018;13.586;2024-03-08T04:50:35;30.33;;;18.88;;
43154;SDS011;34212;51.018;13.586;2024-03-08T04:55:36;29.00;;;17.88;;
43154;SDS011;34212;51.018;13.586;2024-03-08T05:00:38;31.55;;;19.35;;
43154;SDS011;34212;51.018;13.586;2024-03-08T05:05:40;32.42;;;18.73;;
43154;SDS011;34212;51.018;13.586;2024-03-08T05:10:41;31.60;;;18.65;;
43154;SDS011;34212;51.018;13.586;2024-03-08T05:15:43;35.55;;;19.77;;
43154;SDS011;34212;51.018;13.586;2024-03-08T05:20:45;31.02;;;18.15;;
43154;SDS011;34212;51.018;13.586;2024-03-08T05:25:47;31.77;;;19.37;;
43154;SDS011;34212;51.018;13.586;2024-03-08T05:30:49;32.83;;;19.33;;
43154;SDS011;34212;51.018;13.586;2024-03-08T05:35:50;26.95;;;17.48;;
43154;SDS011;34212;51.018;13.586;2024-03-08T05:40:53;28.55;;;18.23;;
43154;SDS011;34212;51.018;13.586;2024-03-08T05:45:55;29.67;;;18.67;;
43154;SDS011;34212;51.018;13.586;2024-03-08T05:50:56;30.58;;;18.48;;
43154;SDS011;34212;51.018;13.586;2024-03-08T05:55:58;29.60;;;18.52;;
43154;SDS011;34212;51.018;13.586;2024-03-08T06:01:00;33.65;;;18.65;;
43154;SDS011;34212;51.018;13.586;2024-03-08T06:06:02;32.65;;;19.67;;
43154;SDS011;34212;51.018;13.586;2024-03-08T06:11:03;32.35;;;18.25;;
43154;SDS011;34212;51.018;13.586;2024-03-08T06:16:07;33.47;;;19.52;;
43154;SDS011;34212;51.018;13.586;2024-03-08T06:21:09;31.23;;;19.67;;
43154;SDS011;34212;51.018;13.586;2024-03-08T06:26:12;30.80;;;18.48;;
43154;SDS011;34212;51.018;13.586;2024-03-08T06:31:14;32.75;;;19.10;;
43154;SDS011;34212;51.018;13.586;2024-03-08T06:36:16;28.67;;;17.90;;
43154;SDS011;34212;51.018;13.586;2024-03-08T06:41:20;29.10;;;17.95;;
43154;SDS011;34212;51.018;13.586;2024-03-08T06:46:21;31.60;;;18.05;;
43154;SDS011;34212;51.018;13.586;2024-03-08T06:51:23;32.22;;;17.27;;
43154;SDS011;34212;51.018;13.586;2024-03-08T06:56:25;31.75;;;18.83;;
43154;SDS011;34212;51.018;13.586;2024-03-08T07:01:26;29.00;;;18.88;;
43154;SDS011;34212;51.018;13.586;2024-03-08T07:06:29;31.98;;;18.10;;
43154;SDS011;34212;51.018;13.586;2024-03-08T07:11:34;31.17;;;20.73;;
43154;SDS011;34212;51.018;13.586;2024-03-08T07:16:36;29.58;;;17.52;;
43154;SDS011;34212;51.018;13.586;2024-03-08T07:21:37;28.27;;;18.42;;
43154;SDS011;34212;51.018;13.586;2024-03-08T07:26:39;30.27;;;19.60;;
43154;SDS011;34212;51.018;13.586;2024-03-08T07:31:40;27.75;;;17.83;;
43154;SDS011;34212;51.018;13.586;2024-03-08T07:37:00;34.65;;;19.90;;
43154;SDS011;34212;51.018;13.586;2024-03-08T07:42:02;29.05;;;19.10;;
43154;SDS011;34212;51.018;13.586;2024-03-08T07:47:04;33.10;;;19.30;;
43154;SDS011;34212;51.018;13.586;2024-03-08T07:52:05;33.10;;;18.80;;
43154;SDS011;34212;51.018;13.586;2024-03-08T07:57:08;33.65;;;19.35;;
43154;SDS011;34212;51.018;13.586;2024-03-08T08:02:11;30.15;;;18.30;;
43154;SDS011;34212;51.018;13.586;2024-03-08T08:07:13;32.22;;;19.45;;
43154;SDS011;34212;51.018;13.586;2024-03-08T08:12:15;31.10;;;19.00;;
43154;SDS011;34212;51.018;13.586;2024-03-08T08:17:17;33.97;;;20.48;;
43154;SDS011;34212;51.018;13.586;2024-03-08T08:22:18;29.63;;;18.73;;
43154;SDS011;34212;51.018;13.586;2024-03-08T08:27:20;35.22;;;19.20;;
43154;SDS011;34212;51.018;13.586;2024-03-08T08:32:22;33.28;;;18.05;;
43154;SDS011;34212;51.018;13.586;2024-03-08T08:37:23;29.20;;;19.08;;
43154;SDS011;34212;51.018;13.586;2024-03-08T08:42:26;30.98;;;18.95;;
43154;SDS011;34212;51.018;13.586;2024-03-08T08:52:31;29.17;;;18.15;;
43154;SDS011;34212;51.018;13.586;2024-03-08T08:57:33;32.17;;;19.57;;
43154;SDS011;34212;51.018;13.586;2024-03-08T09:02:34;30.02;;;19.15;;
43154;SDS011;34212;51.018;13.586;2024-03-08T09:07:36;31.05;;;20.13;;
43154;SDS011;34212;51.018;13.586;2024-03-08T09:12:38;30.27;;;19.20;;
43154;SDS011;34212;51.018;13.586;2024-03-08T09:17:40;30.38;;;18.92;;
43154;SDS011;34212;51.018;13.586;2024-03-08T09:22:43;32.30;;;18.98;;
43154;SDS011;34212;51.018;13.586;2024-03-08T09:27:45;29.53;;;18.67;;
43154;SDS011;34212;51.018;13.586;2024-03-08T09:32:47;30.38;;;18.45;;
43154;SDS011;34212;51.018;13.586;2024-03-08T09:37:49;32.30;;;18.90;;
43154;SDS011;34212;51.018;13.586;2024-03-08T09:42:52;32.40;;;19.40;;
43154;SDS011;34212;51.018;13.586;2024-03-08T09:47:54;30.50;;;19.10;;
43154;SDS011;34212;51.018;13.586;2024-03-08T09:52:56;32.53;;;20.05;;
43154;SDS011;34212;51.018;13.586;2024-03-08T09:57:58;31.77;;;19.23;;
43154;SDS011;34212;51.018;13.586;2024-03-08T10:08:23;28.80;;;17.23;;
43154;SDS011;34212;51.018;13.586;2024-03-08T10:13:25;31.10;;;17.77;;
43154;SDS011;34212;51.018;13.586;2024-03-08T10:18:30;28.83;;;17.90;;
43154;SDS011;34212;51.018;13.586;2024-03-08T10:23:33;29.38;;;18.02;;
43154;SDS011;34212;51.018;13.586;2024-03-08T10:28:35;29.77;;;18.38;;
43154;SDS011;34212;51.018;13.586;2024-03-08T10:33:37;27.60;;;16.80;;
43154;SDS011;34212;51.018;13.586;2024-03-08T10:38:41;27.52;;;17.77;;
43154;SDS011;34212;51.018;13.586;2024-03-08T10:49:01;29.05;;;18.00;;
43154;SDS011;34212;51.018;13.586;2024-03-08T10:54:09;24.48;;;16.75;;
43154;SDS011;34212;51.018;13.586;2024-03-08T10:59:13;24.20;;;16.55;;
43154;SDS011;34212;51.018;13.586;2024-03-08T11:04:15;24.20;;;15.87;;
43154;SDS011;34212;51.018;13.586;2024-03-08T11:09:27;26.52;;;16.73;;
43154;SDS011;34212;51.018;13.586;2024-03-08T11:14:51;22.80;;;16.15;;
43154;SDS011;34212;51.018;13.586;2024-03-08T11:19:56;23.95;;;16.40;;
43154;SDS011;34212;51.018;13.586;2024-03-08T11:25:03;20.38;;;14.77;;
43154;SDS011;34212;51.018;13.586;2024-03-08T11:30:10;25.10;;;16.05;;
43154;SDS011;34212;51.018;13.586;2024-03-08T11:35:19;25.70;;;17.45;;
43154;SDS011;34212;51.018;13.586;2024-03-08T11:40:22;26.35;;;17.27;;
43154;SDS011;34212;51.018;13.586;2024-03-08T11:45:25;29.58;;;17.20;;
43154;SDS011;34212;51.018;13.586;2024-03-08T11:50:27;26.58;;;18.55;;
43154;SDS011;34212;51.018;13.586;2024-03-08T11:55:28;27.20;;;16.13;;
43154;SDS011;34212;51.018;13.586;2024-03-08T12:00:30;24.10;;;15.63;;
43154;SDS011;34212;51.018;13.586;2024-03-08T12:05:39;22.60;;;16.10;;
43154;SDS011;34212;51.018;13.586;2024-03-08T12:10:41;27.27;;;16.60;;
43154;SDS011;34212;51.018;13.586;2024-03-08T12:15:43;23.23;;;14.67;;
43154;SDS011;34212;51.018;13.586;2024-03-08T12:20:45;22.35;;;14.65;;
43154;SDS011;34212;51.018;13.586;2024-03-08T12:25:51;22.17;;;14.98;;
43154;SDS011;34212;51.018;13.586;2024-03-08T12:30:52;23.25;;;14.32;;
43154;SDS011;34212;51.018;13.586;2024-03-08T12:35:55;23.83;;;14.63;;
43154;SDS011;34212;51.018;13.586;2024-03-08T12:40:59;21.02;;;14.55;;
43154;SDS011;34212;51.018;13.586;2024-03-08T12:46:02;19.27;;;13.35;;
43154;SDS011;34212;51.018;13.586;2024-03-08T12:51:05;18.13;;;12.85;;
43154;SDS011;34212;51.018;13.586;2024-03-08T12:56:08;21.92;;;14.73;;
43154;SDS011;34212;51.018;13.586;2024-03-08T13:01:10;23.90;;;13.37;;
43154;SDS011;34212;51.018;13.586;2024-03-08T13:11:14;20.05;;;13.10;;
43154;SDS011;34212;51.018;13.586;2024-03-08T13:16:16;16.48;;;12.82;;
43154;SDS011;34212;51.018;13.586;2024-03-08T13:21:20;18.55;;;12.70;;
43154;SDS011;34212;51.018;13.586;2024-03-08T13:26:25;20.25;;;11.73;;
43154;SDS011;34212;51.018;13.586;2024-03-08T13:31:31;16.45;;;12.32;;
43154;SDS011;34212;51.018;13.586;2024-03-08T13:36:33;16.70;;;11.93;;
43154;SDS011;34212;51.018;13.586;2024-03-08T13:41:41;15.38;;;11.30;;
43154;SDS011;34212;51.018;13.586;2024-03-08T13:51:44;14.88;;;11.35;;
43154;SDS011;34212;51.018;13.586;2024-03-08T13:56:46;12.95;;;9.93;;
43154;SDS011;34212;51.018;13.586;2024-03-08T14:01:48;14.25;;;10.43;;
43154;SDS011;34212;51.018;13.586;2024-03-08T14:06:52;11.57;;;9.25;;
43154;SDS011;34212;51.018;13.586;2024-03-08T14:12:01;15.52;;;9.90;;
43154;SDS011;34212;51.018;13.586;2024-03-08T14:17:07;12.98;;;9.23;;
43154;SDS011;34212;51.018;13.586;2024-03-08T14:22:11;14.50;;;9.43;;
43154;SDS011;34212;51.018;13.586;2024-03-08T14:27:15;14.70;;;9.88;;
43154;SDS011;34212;51.018;13.586;2024-03-08T14:32:19;13.02;;;9.05;;
43154;SDS011;34212;51.018;13.586;2024-03-08T14:37:24;12.32;;;8.02;;
43154;SDS011;34212;51.018;13.586;2024-03-08T14:42:30;10.60;;;7.65;;
43154;SDS011;34212;51.018;13.586;2024-03-08T14:47:32;13.57;;;8.55;;
43154;SDS011;34212;51.018;13.586;2024-03-08T14:52:35;11.27;;;8.07;;
43154;SDS011;34212;51.018;13.586;2024-03-08T14:57:37;10.47;;;7.90;;
43154;SDS011;34212;51.018;13.586;2024-03-08T15:02:40;13.27;;;7.95;;
43154;SDS011;34212;51.018;13.586;2024-03-08T15:12:45;9.73;;;7.38;;
43154;SDS011;34212;51.018;13.586;2024-03-08T15:17:52;11.52;;;7.97;;
43154;SDS011;34212;51.018;13.586;2024-03-08T15:22:55;12.48;;;7.88;;
43154;SDS011;34212;51.018;13.586;2024-03-08T15:28:00;11.50;;;7.53;;
43154;SDS011;34212;51.018;13.586;2024-03-08T15:33:05;10.73;;;7.63;;
43154;SDS011;34212;51.018;13.586;2024-03-08T15:38:11;12.40;;;7.55;;
43154;SDS011;34212;51.018;13.586;2024-03-08T15:43:12;12.02;;;7.70;;
43154;SDS011;34212;51.018;13.586;2024-03-08T15:48:17;11.70;;;7.65;;
43154;SDS011;34212;51.018;13.586;2024-03-08T15:53:19;11.03;;;7.20;;
43154;SDS011;34212;51.018;13.586;2024-03-08T15:58:20;12.68;;;8.80;;
43154;SDS011;34212;51.018;13.586;2024-03-08T16:03:22;12.30;;;8.60;;
43154;SDS011;34212;51.018;13.586;2024-03-08T16:08:24;12.88;;;8.77;;
43154;SDS011;34212;51.018;13.586;2024-03-08T16:13:26;11.30;;;8.83;;
43154;SDS011;34212;51.018;13.586;2024-03-08T16:18:28;12.30;;;8.50;;
43154;SDS011;34212;51.018;13.586;2024-03-08T16:23:32;11.82;;;8.60;;
43154;SDS011;34212;51.018;13.586;2024-03-08T16:28:34;15.32;;;9.43;;
43154;SDS011;34212;51.018;13.586;2024-03-08T16:33:43;12.93;;;9.63;;
43154;SDS011;34212;51.018;13.586;2024-03-08T16:38:46;12.25;;;8.93;;
43154;SDS011;34212;51.018;13.586;2024-03-08T16:43:49;15.07;;;9.75;;
43154;SDS011;34212;51.018;13.586;2024-03-08T16:48:51;11.18;;;8.50;;
43154;SDS011;34212;51.018;13.586;2024-03-08T16:53:53;14.32;;;9.75;;
43154;SDS011;34212;51.018;13.586;2024-03-08T16:58:54;15.35;;;9.95;;
43154;SDS011;34212;51.018;13.586;2024-03-08T17:03:56;18.70;;;11.43;;
43154;SDS011;34212;51.018;13.586;2024-03-08T17:09:01;15.52;;;10.52;;
43154;SDS011;34212;51.018;13.586;2024-03-08T17:14:04;17.73;;;12.23;;
43154;SDS011;34212;51.018;13.586;2024-03-08T17:19:06;16.33;;;10.90;;
43154;SDS011;34212;51.018;13.586;2024-03-08T17:24:08;16.92;;;11.95;;
43154;SDS011;34212;51.018;13.586;2024-03-08T17:29:12;17.63;;;12.07;;
43154;SDS011;34212;51.018;13.586;2024-03-08T17:34:15;16.33;;;10.77;;
43154;SDS011;34212;51.018;13.586;2024-03-08T17:39:20;16.98;;;11.55;;
43154;SDS011;34212;51.018;13.586;2024-03-08T17:44:27;16.70;;;11.30;;
43154;SDS011;34212;51.018;13.586;2024-03-08T17:49:32;15.60;;;11.45;;
43154;SDS011;34212;51.018;13.586;2024-03-08T17:54:36;21.00;;;12.25;;
43154;SDS011;34212;51.018;13.586;2024-03-08T17:59:38;16.67;;;11.75;;
43154;SDS011;34212;51.018;13.586;2024-03-08T18:04:39;15.68;;;11.82;;
43154;SDS011;34212;51.018;13.586;2024-03-08T18:09:41;15.93;;;11.00;;
43154;SDS011;34212;51.018;13.586;2024-03-08T18:14:43;16.15;;;10.75;;
43154;SDS011;34212;51.018;13.586;2024-03-08T18:19:45;15.07;;;9.88;;
43154;SDS011;34212;51.018;13.586;2024-03-08T18:24:49;13.90;;;10.13;;
43154;SDS011;34212;51.018;13.586;2024-03-08T18:29:51;16.30;;;10.25;;
43154;SDS011;34212;51.018;13.586;2024-03-08T18:34:53;19.20;;;12.05;;
43154;SDS011;34212;51.018;13.586;2024-03-08T18:39:55;18.20;;;10.90;;
43154;SDS011;34212;51.018;13.586;2024-03-08T18:44:57;16.70;;;11.20;;
43154;SDS011;34212;51.018;13.586;2024-03-08T18:49:59;16.02;;;10.38;;
43154;SDS011;34212;51.018;13.586;2024-03-08T18:55:01;16.23;;;10.20;;
43154;SDS011;34212;51.018;13.586;2024-03-08T19:00:04;14.93;;;10.43;;
43154;SDS011;34212;51.018;13.586;2024-03-08T19:05:14;16.25;;;10.98;;
43154;SDS011;34212;51.018;13.586;2024-03-08T19:10:20;16.15;;;10.88;;
43154;SDS011;34212;51.018;13.586;2024-03-08T19:15:24;15.93;;;10.52;;
43154;SDS011;34212;51.018;13.586;2024-03-08T19:20:27;17.45;;;10.30;;
43154;SDS011;34212;51.018;13.586;2024-03-08T19:25:37;15.73;;;10.38;;
43154;SDS011;34212;51.018;13.586;2024-03-08T19:30:43;15.25;;;9.63;;
43154;SDS011;34212;51.018;13.586;2024-03-08T19:35:45;15.30;;;9.98;;
43154;SDS011;34212;51.018;13.586;2024-03-08T19:40:48;13.55;;;9.63;;
43154;SDS011;34212;51.018;13.586;2024-03-08T19:45:52;16.60;;;10.00;;
43154;SDS011;34212;51.018;13.586;2024-03-08T19:50:55;14.40;;;9.80;;
43154;SDS011;34212;51.018;13.586;2024-03-08T19:56:00;14.18;;;9.65;;
43154;SDS011;34212;51.018;13.586;2024-03-08T20:06:05;12.93;;;8.70;;
43154;SDS011;34212;51.018;13.586;2024-03-08T20:11:07;14.25;;;9.77;;
43154;SDS011;34212;51.018;13.586;2024-03-08T20:16:11;12.68;;;8.93;;
43154;SDS011;34212;51.018;13.586;2024-03-08T20:21:14;12.88;;;8.85;;
43154;SDS011;34212;51.018;13.586;2024-03-08T20:26:15;13.23;;;8.50;;
43154;SDS011;34212;51.018;13.586;2024-03-08T20:31:17;12.68;;;8.85;;
43154;SDS011;34212;51.018;13.586;2024-03-08T20:36:19;14.90;;;9.32;;
43154;SDS011;34212;51.018;13.586;2024-03-08T20:41:20;18.40;;;10.35;;
43154;SDS011;34212;51.018;13.586;2024-03-08T20:46:23;13.90;;;9.40;;
43154;SDS011;34212;51.018;13.586;2024-03-08T20:51:24;16.77;;;11.30;;
43154;SDS011;34212;51.018;13.586;2024-03-08T20:56:26;16.52;;;10.68;;
43154;SDS011;34212;51.018;13.586;2024-03-08T21:01:28;16.67;;;9.50;;
43154;SDS011;34212;51.018;13.586;2024-03-08T21:06:32;19.52;;;10.18;;
43154;SDS011;34212;51.018;13.586;2024-03-08T21:11:35;15.85;;;10.63;;
43154;SDS011;34212;51.018;13.586;2024-03-08T21:16:37;19.40;;;10.52;;
43154;SDS011;34212;51.018;13.586;2024-03-08T21:21:40;18.88;;;10.82;;
43154;SDS011;34212;51.018;13.586;2024-03-08T21:26:42;19.23;;;11.85;;
43154;SDS011;34212;51.018;13.586;2024-03-08T21:31:44;17.83;;;11.65;;
43154;SDS011;34212;51.018;13.586;2024-03-08T21:36:45;19.80;;;12.55;;
43154;SDS011;34212;51.018;13.586;2024-03-08T21:41:47;18.95;;;11.82;;
43154;SDS011;34212;51.018;13.586;2024-03-08T21:46:49;20.43;;;11.60;;
43154;SDS011;34212;51.018;13.586;2024-03-08T21:51:51;19.25;;;12.68;;
43154;SDS011;34212;51.018;13.586;2024-03-08T21:56:53;20.92;;;11.93;;
43154;SDS011;34212;51.018;13.586;2024-03-08T22:01:55;18.40;;;12.13;;
43154;SDS011;34212;51.018;13.586;2024-03-08T22:06:56;22.67;;;12.48;;
43154;SDS011;34212;51.018;13.586;2024-03-08T22:11:58;22.42;;;12.98;;
43154;SDS011;34212;51.018;13.586;2024-03-08T22:17:00;22.90;;;13.93;;
43154;SDS011;34212;51.018;13.586;2024-03-08T22:22:02;22.77;;;13.35;;
43154;SDS011;34212;51.018;13.586;2024-03-08T22:27:04;21.45;;;13.10;;
43154;SDS011;34212;51.018;13.586;2024-03-08T22:32:05;23.55;;;13.35;;
43154;SDS011;34212;51.018;13.586;2024-03-08T22:37:09;24.40;;;13.75;;
43154;SDS011;34212;51.018;13.586;2024-03-08T22:42:10;20.73;;;13.07;;
43154;SDS011;34212;51.018;13.586;2024-03-08T22:47:12;22.15;;;13.40;;
43154;SDS011;34212;51.018;13.586;2024-03-08T22:52:14;20.33;;;12.95;;
43154;SDS011;34212;51.018;13.586;2024-03-08T22:57:16;23.05;;;12.77;;
43154;SDS011;34212;51.018;13.586;2024-03-08T23:02:19;24.40;;;14.07;;
43154;SDS011;34212;51.018;13.586;2024-03-08T23:07:21;19.33;;;12.80;;
43154;SDS011;34212;51.018;13.586;2024-03-08T23:12:25;21.70;;;12.63;;
43154;SDS011;34212;51.018;13.586;2024-03-08T23:17:28;19.58;;;12.82;;
43154;SDS011;34212;51.018;13.586;2024-03-08T23:22:33;23.15;;;12.18;;
43154;SDS011;34212;51.018;13.586;2024-03-08T23:27:34;19.23;;;12.68;;
43154;SDS011;34212;51.018;13.586;2024-03-08T23:32:36;19.88;;;12.02;;
43154;SDS011;34212;51.018;13.586;2024-03-08T23:37:41;19.92;;;12.38;;
43154;SDS011;34212;51.018;13.586;2024-03-08T23:42:48;19.80;;;11.63;;
43154;SDS011;34212;51.018;13.586;2024-03-08T23:47:52;24.30;;;11.40;;
43154;SDS011;34212;51.018;13.586;2024-03-08T23:52:56;19.23;;;10.88;;
43154;SDS011;34212;51.018;13.586;2024-03-08T23:58:03;18.38;;;11.02;;
